sensor_id;sensor_type;location;lat;lon;timestamp;pressure;altitude;pressure_sealevel;temperature;humidity
28181;BME280;15464;50.988;10.318;2023-04-22T00:02:13;98437.00;;;8.97;79.78
28181;BME280;15464;50.988;10.318;2023-04-22T00:04:42;98437.53;;;8.90;81.31
28181;BME280;15464;50.988;10.318;2023-04-22T00:07:13;98436.06;;;8.77;82.82
28181;BME280;15464;50.988;10.318;2023-04-22T00:09:40;98428.56;;;8.72;82.47
28181;BME280;15464;50.988;10.318;2023-04-22T00:12:07;98438.28;;;8.72;81.76
28181;BME280;15464;50.988;10.318;2023-04-22T00:14:34;98437.97;;;8.65;81.59
28181;BME280;15464;50.988;10.318;2023-04-22T00:17:01;98431.97;;;8.63;82.20
28181;BME280;15464;50.988;10.318;2023-04-22T00:19:28;98428.81;;;8.69;83.68
28181;BME280;15464;50.988;10.318;2023-04-22T00:21:54;98424.31;;;8.60;83.07
28181;BME280;15464;50.988;10.318;2023-04-22T00:24:21;98420.97;;;8.58;84.56
28181;BME280;15464;50.988;10.318;2023-04-22T00:26:48;98427.72;;;8.51;82.85
28181;BME280;15464;50.988;10.318;2023-04-22T00:29:14;98434.50;;;8.44;82.50
28181;BME280;15464;50.988;10.318;2023-04-22T00:31:41;98430.84;;;8.35;81.87
28181;BME280;15464;50.988;10.318;2023-04-22T00:34:08;98436.97;;;8.36;82.78
28181;BME280;15464;50.988;10.318;2023-04-22T00:36:34;98429.28;;;8.33;83.05
28181;BME280;15464;50.988;10.318;2023-04-22T00:39:01;98427.50;;;8.33;84.83
28181;BME280;15464;50.988;10.318;2023-04-22T00:41:28;98428.88;;;8.17;83.98
28181;BME280;15464;50.988;10.318;2023-04-22T00:43:57;98432.38;;;8.17;83.81
28181;BME280;15464;50.988;10.318;2023-04-22T00:46:25;98431.53;;;8.17;84.23
28181;BME280;15464;50.988;10.318;2023-04-22T00:48:52;98421.31;;;8.12;86.48
28181;BME280;15464;50.988;10.318;2023-04-22T00:51:19;98425.06;;;8.09;86.44
28181;BME280;15464;50.988;10.318;2023-04-22T00:53:45;98427.28;;;8.04;85.49
28181;BME280;15464;50.988;10.318;2023-04-22T00:56:12;98419.88;;;7.98;84.83
28181;BME280;15464;50.988;10.318;2023-04-22T00:58:39;98427.06;;;7.96;84.52
28181;BME280;15464;50.988;10.318;2023-04-22T01:01:06;98422.16;;;7.92;83.98
28181;BME280;15464;50.988;10.318;2023-04-22T01:03:35;98428.91;;;7.85;83.50
28181;BME280;15464;50.988;10.318;2023-04-22T01:06:04;98441.78;;;7.78;84.24
28181;BME280;15464;50.988;10.318;2023-04-22T01:08:32;98433.97;;;7.77;84.00
28181;BME280;15464;50.988;10.318;2023-04-22T01:10:59;98434.59;;;7.80;85.90
28181;BME280;15464;50.988;10.318;2023-04-22T01:13:25;98426.78;;;7.79;88.32
28181;BME280;15464;50.988;10.318;2023-04-22T01:15:52;98431.59;;;7.74;87.75
28181;BME280;15464;50.988;10.318;2023-04-22T01:18:19;98433.91;;;7.67;86.47
28181;BME280;15464;50.988;10.318;2023-04-22T01:20:46;98428.28;;;7.60;85.92
28181;BME280;15464;50.988;10.318;2023-04-22T01:23:19;98436.56;;;7.56;85.02
28181;BME280;15464;50.988;10.318;2023-04-22T01:25:47;98442.59;;;7.47;85.70
28181;BME280;15464;50.988;10.318;2023-04-22T01:28:15;98440.91;;;7.46;85.08
28181;BME280;15464;50.988;10.318;2023-04-22T01:30:42;98440.34;;;7.42;86.29
28181;BME280;15464;50.988;10.318;2023-04-22T01:33:10;98458.66;;;7.44;85.86
28181;BME280;15464;50.988;10.318;2023-04-22T01:35:37;98448.38;;;7.41;86.24
28181;BME280;15464;50.988;10.318;2023-04-22T01:38:06;98459.88;;;7.40;86.39
28181;BME280;15464;50.988;10.318;2023-04-22T01:40:33;98458.56;;;7.34;85.67
28181;BME280;15464;50.988;10.318;2023-04-22T01:43:01;98458.56;;;7.34;86.69
28181;BME280;15464;50.988;10.318;2023-04-22T01:45:28;98443.59;;;7.35;88.68
28181;BME280;15464;50.988;10.318;2023-04-22T01:47:55;98458.81;;;7.31;87.34
28181;BME280;15464;50.988;10.318;2023-04-22T01:50:22;98457.50;;;7.25;87.93
28181;BME280;15464;50.988;10.318;2023-04-22T01:52:49;98453.81;;;7.17;87.93
28181;BME280;15464;50.988;10.318;2023-04-22T01:55:16;98453.19;;;7.13;89.16
28181;BME280;15464;50.988;10.318;2023-04-22T01:57:43;98447.94;;;7.13;90.41
28181;BME280;15464;50.988;10.318;2023-04-22T02:00:10;98448.53;;;7.17;90.42
28181;BME280;15464;50.988;10.318;2023-04-22T02:02:37;98455.59;;;7.16;89.66
28181;BME280;15464;50.988;10.318;2023-04-22T02:05:08;98451.78;;;7.09;90.62
28181;BME280;15464;50.988;10.318;2023-04-22T02:07:34;98453.69;;;7.07;90.49
28181;BME280;15464;50.988;10.318;2023-04-22T02:10:05;98454.06;;;7.03;90.55
28181;BME280;15464;50.988;10.318;2023-04-22T02:12:31;98459.91;;;7.06;90.00
28181;BME280;15464;50.988;10.318;2023-04-22T02:14:58;98457.78;;;7.11;89.93
28181;BME280;15464;50.988;10.318;2023-04-22T02:17:25;98456.09;;;7.10;88.85
28181;BME280;15464;50.988;10.318;2023-04-22T02:19:53;98457.16;;;7.08;89.14
28181;BME280;15464;50.988;10.318;2023-04-22T02:22:21;98451.03;;;7.07;88.76
28181;BME280;15464;50.988;10.318;2023-04-22T02:24:49;98458.25;;;7.05;88.10
28181;BME280;15464;50.988;10.318;2023-04-22T02:27:15;98449.25;;;7.08;88.69
28181;BME280;15464;50.988;10.318;2023-04-22T02:29:42;98445.78;;;7.07;88.85
28181;BME280;15464;50.988;10.318;2023-04-22T02:32:09;98451.03;;;7.07;88.38
28181;BME280;15464;50.988;10.318;2023-04-22T02:34:36;98455.63;;;7.05;88.74
28181;BME280;15464;50.988;10.318;2023-04-22T02:37:02;98452.25;;;7.03;89.24
28181;BME280;15464;50.988;10.318;2023-04-22T02:39:29;98456.56;;;7.04;88.88
28181;BME280;15464;50.988;10.318;2023-04-22T02:41:56;98455.59;;;6.94;89.70
28181;BME280;15464;50.988;10.318;2023-04-22T02:44:22;98452.50;;;6.89;90.81
28181;BME280;15464;50.988;10.318;2023-04-22T02:46:49;98448.06;;;6.89;90.80
28181;BME280;15464;50.988;10.318;2023-04-22T02:49:16;98446.16;;;6.92;90.59
28181;BME280;15464;50.988;10.318;2023-04-22T02:51:42;98443.63;;;6.90;90.24
28181;BME280;15464;50.988;10.318;2023-04-22T02:54:09;98443.63;;;6.90;90.21
28181;BME280;15464;50.988;10.318;2023-04-22T02:56:36;98436.56;;;6.91;89.83
28181;BME280;15464;50.988;10.318;2023-04-22T02:59:02;98438.38;;;6.90;90.00
28181;BME280;15464;50.988;10.318;2023-04-22T03:01:29;98433.09;;;6.90;89.68
28181;BME280;15464;50.988;10.318;2023-04-22T03:03:56;98438.38;;;6.90;90.03
28181;BME280;15464;50.988;10.318;2023-04-22T03:06:23;98443.63;;;6.90;89.50
28181;BME280;15464;50.988;10.318;2023-04-22T03:08:50;98448.06;;;6.89;89.68
28181;BME280;15464;50.988;10.318;2023-04-22T03:11:17;98447.94;;;6.91;89.52
28181;BME280;15464;50.988;10.318;2023-04-22T03:13:43;98447.13;;;6.91;89.30
28181;BME280;15464;50.988;10.318;2023-04-22T03:16:10;98448.91;;;6.90;89.47
28181;BME280;15464;50.988;10.318;2023-04-22T03:18:37;98449.75;;;6.91;89.69
28181;BME280;15464;50.988;10.318;2023-04-22T03:21:04;98444.09;;;6.95;90.23
28181;BME280;15464;50.988;10.318;2023-04-22T03:23:30;98438.94;;;6.94;90.10
28181;BME280;15464;50.988;10.318;2023-04-22T03:25:58;98439.56;;;6.97;90.22
28181;BME280;15464;50.988;10.318;2023-04-22T03:28:24;98438.59;;;6.98;89.75
28181;BME280;15464;50.988;10.318;2023-04-22T03:30:51;98428.91;;;6.99;90.03
28181;BME280;15464;50.988;10.318;2023-04-22T03:33:17;98441.09;;;7.00;90.44
28181;BME280;15464;50.988;10.318;2023-04-22T03:35:47;98442.94;;;6.99;90.09
28181;BME280;15464;50.988;10.318;2023-04-22T03:38:14;98437.66;;;6.99;90.02
28181;BME280;15464;50.988;10.318;2023-04-22T03:40:42;98433.81;;;7.03;89.88
28181;BME280;15464;50.988;10.318;2023-04-22T03:43:08;98430.91;;;7.06;90.68
28181;BME280;15464;50.988;10.318;2023-04-22T03:45:35;98433.53;;;7.06;90.98
28181;BME280;15464;50.988;10.318;2023-04-22T03:48:02;98429.38;;;7.04;91.70
28181;BME280;15464;50.988;10.318;2023-04-22T03:50:29;98434.03;;;7.00;91.18
28181;BME280;15464;50.988;10.318;2023-04-22T03:52:56;98434.28;;;6.97;91.12
28181;BME280;15464;50.988;10.318;2023-04-22T03:55:22;98436.19;;;6.95;90.49
28181;BME280;15464;50.988;10.318;2023-04-22T03:57:49;98430.81;;;6.97;89.59
28181;BME280;15464;50.988;10.318;2023-04-22T04:00:16;98426.84;;;7.02;91.99
28181;BME280;15464;50.988;10.318;2023-04-22T04:02:43;98428.53;;;7.03;92.46
28181;BME280;15464;50.988;10.318;2023-04-22T04:05:10;98426.63;;;7.05;92.08
28181;BME280;15464;50.988;10.318;2023-04-22T04:07:37;98428.41;;;7.05;92.01
28181;BME280;15464;50.988;10.318;2023-04-22T04:10:04;98429.38;;;7.04;92.46
28181;BME280;15464;50.988;10.318;2023-04-22T04:12:31;98440.16;;;7.01;92.46
28181;BME280;15464;50.988;10.318;2023-04-22T04:14:58;98435.13;;;6.98;92.06
28181;BME280;15464;50.988;10.318;2023-04-22T04:17:24;98434.28;;;6.97;91.35
28181;BME280;15464;50.988;10.318;2023-04-22T04:19:52;98428.19;;;6.97;92.13
28181;BME280;15464;50.988;10.318;2023-04-22T04:22:19;98431.75;;;6.96;92.50
28181;BME280;15464;50.988;10.318;2023-04-22T04:24:46;98424.47;;;6.99;93.38
28181;BME280;15464;50.988;10.318;2023-04-22T04:27:14;98432.59;;;6.96;92.42
28181;BME280;15464;50.988;10.318;2023-04-22T04:29:40;98428.19;;;6.97;94.11
28181;BME280;15464;50.988;10.318;2023-04-22T04:32:07;98432.13;;;6.91;94.91
28181;BME280;15464;50.988;10.318;2023-04-22T04:34:35;98423.63;;;6.87;95.14
28181;BME280;15464;50.988;10.318;2023-04-22T04:37:03;98423.00;;;6.95;94.71
28181;BME280;15464;50.988;10.318;2023-04-22T04:39:29;98421.84;;;6.99;93.86
28181;BME280;15464;50.988;10.318;2023-04-22T04:41:56;98427.09;;;6.99;94.33
28181;BME280;15464;50.988;10.318;2023-04-22T04:44:24;98428.28;;;6.95;95.22
28181;BME280;15464;50.988;10.318;2023-04-22T04:46:57;98414.38;;;7.04;95.08
28181;BME280;15464;50.988;10.318;2023-04-22T04:49:25;98426.13;;;7.00;96.00
28181;BME280;15464;50.988;10.318;2023-04-22T04:51:52;98414.03;;;6.98;95.84
28181;BME280;15464;50.988;10.318;2023-04-22T04:54:19;98425.06;;;7.03;95.40
28181;BME280;15464;50.988;10.318;2023-04-22T04:56:46;98415.81;;;7.08;95.44
28181;BME280;15464;50.988;10.318;2023-04-22T04:59:12;98419.06;;;7.12;96.10
28181;BME280;15464;50.988;10.318;2023-04-22T05:01:39;98415.09;;;7.17;95.34
28181;BME280;15464;50.988;10.318;2023-04-22T05:04:06;98416.50;;;7.21;95.34
28181;BME280;15464;50.988;10.318;2023-04-22T05:06:33;98411.00;;;7.24;94.83
28181;BME280;15464;50.988;10.318;2023-04-22T05:09:00;98422.03;;;7.29;96.03
28181;BME280;15464;50.988;10.318;2023-04-22T05:11:26;98417.22;;;7.35;95.87
28181;BME280;15464;50.988;10.318;2023-04-22T05:13:53;98413.97;;;7.42;94.46
28181;BME280;15464;50.988;10.318;2023-04-22T05:16:20;98422.22;;;7.49;94.92
28181;BME280;15464;50.988;10.318;2023-04-22T05:18:47;98421.44;;;7.58;95.05
28181;BME280;15464;50.988;10.318;2023-04-22T05:21:13;98416.41;;;7.66;94.06
28181;BME280;15464;50.988;10.318;2023-04-22T05:23:42;98426.44;;;7.72;95.12
28181;BME280;15464;50.988;10.318;2023-04-22T05:26:08;98424.03;;;7.80;96.91
28181;BME280;15464;50.988;10.318;2023-04-22T05:28:35;98421.56;;;7.88;95.51
28181;BME280;15464;50.988;10.318;2023-04-22T05:31:02;98424.34;;;8.07;95.39
28181;BME280;15464;50.988;10.318;2023-04-22T05:33:28;98423.97;;;8.12;95.42
28181;BME280;15464;50.988;10.318;2023-04-22T05:35:55;98421.28;;;8.23;94.55
28181;BME280;15464;50.988;10.318;2023-04-22T05:38:22;98420.59;;;8.42;95.03
28181;BME280;15464;50.988;10.318;2023-04-22T05:40:48;98422.88;;;8.56;93.43
28181;BME280;15464;50.988;10.318;2023-04-22T05:43:15;98417.06;;;8.62;93.86
28181;BME280;15464;50.988;10.318;2023-04-22T05:45:42;98422.84;;;8.77;93.29
28181;BME280;15464;50.988;10.318;2023-04-22T05:48:08;98417.94;;;8.93;92.27
28181;BME280;15464;50.988;10.318;2023-04-22T05:50:35;98416.88;;;9.15;91.36
28181;BME280;15464;50.988;10.318;2023-04-22T05:53:02;98416.38;;;9.30;90.72
28181;BME280;15464;50.988;10.318;2023-04-22T05:55:28;98424.03;;;9.43;91.39
28181;BME280;15464;50.988;10.318;2023-04-22T05:57:56;98422.00;;;9.66;89.55
28181;BME280;15464;50.988;10.318;2023-04-22T06:00:22;98417.09;;;9.81;90.12
28181;BME280;15464;50.988;10.318;2023-04-22T06:02:49;98412.94;;;10.07;87.89
28181;BME280;15464;50.988;10.318;2023-04-22T06:05:16;98412.66;;;10.29;85.29
28181;BME280;15464;50.988;10.318;2023-04-22T06:07:43;98414.22;;;10.69;82.04
28181;BME280;15464;50.988;10.318;2023-04-22T06:10:10;98410.03;;;10.76;82.63
28181;BME280;15464;50.988;10.318;2023-04-22T06:12:37;98407.59;;;10.92;81.63
28181;BME280;15464;50.988;10.318;2023-04-22T06:15:04;98407.91;;;11.16;79.80
28181;BME280;15464;50.988;10.318;2023-04-22T06:17:31;98399.72;;;11.27;78.56
28181;BME280;15464;50.988;10.318;2023-04-22T06:19:57;98400.06;;;11.42;78.37
28181;BME280;15464;50.988;10.318;2023-04-22T06:22:24;98392.41;;;11.57;77.90
28181;BME280;15464;50.988;10.318;2023-04-22T06:24:51;98395.31;;;11.81;77.41
28181;BME280;15464;50.988;10.318;2023-04-22T06:27:17;98398.44;;;11.94;77.74
28181;BME280;15464;50.988;10.318;2023-04-22T06:29:44;98394.84;;;12.21;75.91
28181;BME280;15464;50.988;10.318;2023-04-22T06:32:11;98401.31;;;12.44;73.15
28181;BME280;15464;50.988;10.318;2023-04-22T06:34:37;98403.63;;;12.65;70.66
28181;BME280;15464;50.988;10.318;2023-04-22T06:37:04;98398.09;;;12.84;67.46
28181;BME280;15464;50.988;10.318;2023-04-22T06:39:31;98398.56;;;13.14;65.86
28181;BME280;15464;50.988;10.318;2023-04-22T06:41:58;98398.63;;;13.22;67.81
28181;BME280;15464;50.988;10.318;2023-04-22T06:44:24;98405.03;;;13.53;62.96
28181;BME280;15464;50.988;10.318;2023-04-22T06:46:51;98393.09;;;13.82;64.13
28181;BME280;15464;50.988;10.318;2023-04-22T06:49:21;98394.63;;;14.08;60.62
28181;BME280;15464;50.988;10.318;2023-04-22T06:51:47;98398.94;;;14.26;62.17
28181;BME280;15464;50.988;10.318;2023-04-22T06:54:14;98397.78;;;14.52;60.26
28181;BME280;15464;50.988;10.318;2023-04-22T06:56:41;98389.03;;;14.91;57.52
28181;BME280;15464;50.988;10.318;2023-04-22T06:59:07;98380.59;;;15.10;58.92
28181;BME280;15464;50.988;10.318;2023-04-22T07:01:34;98381.50;;;15.33;58.49
28181;BME280;15464;50.988;10.318;2023-04-22T07:04:01;98381.09;;;15.45;55.92
28181;BME280;15464;50.988;10.318;2023-04-22T07:06:28;98375.63;;;15.69;55.54
28181;BME280;15464;50.988;10.318;2023-04-22T07:08:54;98376.19;;;15.87;58.12
28181;BME280;15464;50.988;10.318;2023-04-22T07:11:21;98366.84;;;16.06;57.56
28181;BME280;15464;50.988;10.318;2023-04-22T07:13:48;98358.63;;;16.30;56.84
28181;BME280;15464;50.988;10.318;2023-04-22T07:16:14;98355.41;;;16.49;55.46
28181;BME280;15464;50.988;10.318;2023-04-22T07:18:41;98364.69;;;16.62;52.46
28181;BME280;15464;50.988;10.318;2023-04-22T07:21:08;98361.34;;;16.74;51.41
28181;BME280;15464;50.988;10.318;2023-04-22T07:23:34;98356.75;;;16.98;50.76
28181;BME280;15464;50.988;10.318;2023-04-22T07:26:01;98359.63;;;17.11;49.72
28181;BME280;15464;50.988;10.318;2023-04-22T07:28:34;98357.13;;;17.09;50.27
28181;BME280;15464;50.988;10.318;2023-04-22T07:31:01;98360.50;;;17.18;51.21
28181;BME280;15464;50.988;10.318;2023-04-22T07:33:28;98362.66;;;17.08;49.55
28181;BME280;15464;50.988;10.318;2023-04-22T07:35:55;98360.25;;;17.13;50.43
28181;BME280;15464;50.988;10.318;2023-04-22T07:38:21;98358.13;;;17.23;51.62
28181;BME280;15464;50.988;10.318;2023-04-22T07:40:48;98357.72;;;17.41;50.76
28181;BME280;15464;50.988;10.318;2023-04-22T07:43:15;98357.88;;;17.54;50.03
28181;BME280;15464;50.988;10.318;2023-04-22T07:45:42;98363.34;;;17.60;50.86
28181;BME280;15464;50.988;10.318;2023-04-22T07:48:09;98357.56;;;17.63;50.00
28181;BME280;15464;50.988;10.318;2023-04-22T07:50:35;98361.09;;;17.64;49.70
28181;BME280;15464;50.988;10.318;2023-04-22T07:53:04;98361.63;;;17.59;52.39
28181;BME280;15464;50.988;10.318;2023-04-22T07:55:31;98362.69;;;18.01;51.43
28181;BME280;15464;50.988;10.318;2023-04-22T07:57:58;98354.91;;;18.06;49.67
28181;BME280;15464;50.988;10.318;2023-04-22T08:00:26;98353.50;;;18.10;51.05
28181;BME280;15464;50.988;10.318;2023-04-22T08:02:53;98360.13;;;18.14;49.25
28181;BME280;15464;50.988;10.318;2023-04-22T08:05:20;98346.34;;;18.45;50.07
28181;BME280;15464;50.988;10.318;2023-04-22T08:07:47;98346.53;;;18.65;50.70
28181;BME280;15464;50.988;10.318;2023-04-22T08:10:13;98343.69;;;18.73;49.87
28181;BME280;15464;50.988;10.318;2023-04-22T08:12:41;98342.56;;;18.95;47.47
28181;BME280;15464;50.988;10.318;2023-04-22T08:15:08;98338.13;;;18.81;47.61
28181;BME280;15464;50.988;10.318;2023-04-22T08:17:35;98337.28;;;18.74;48.68
28181;BME280;15464;50.988;10.318;2023-04-22T08:20:04;98344.88;;;18.98;47.33
28181;BME280;15464;50.988;10.318;2023-04-22T08:22:33;98339.97;;;19.15;46.70
28181;BME280;15464;50.988;10.318;2023-04-22T08:25:01;98335.91;;;18.57;45.75
28181;BME280;15464;50.988;10.318;2023-04-22T08:27:28;98339.16;;;18.73;44.92
28181;BME280;15464;50.988;10.318;2023-04-22T08:29:54;98327.69;;;18.92;45.93
28181;BME280;15464;50.988;10.318;2023-04-22T08:32:21;98328.56;;;19.06;44.56
28181;BME280;15464;50.988;10.318;2023-04-22T08:34:51;98329.13;;;18.95;48.03
28181;BME280;15464;50.988;10.318;2023-04-22T08:37:26;98330.94;;;18.88;45.85
28181;BME280;15464;50.988;10.318;2023-04-22T08:39:53;98319.97;;;18.83;46.75
28181;BME280;15464;50.988;10.318;2023-04-22T08:42:19;98315.91;;;19.00;44.12
28181;BME280;15464;50.988;10.318;2023-04-22T08:44:48;98316.31;;;18.97;46.86
28181;BME280;15464;50.988;10.318;2023-04-22T08:47:15;98312.53;;;18.85;45.29
28181;BME280;15464;50.988;10.318;2023-04-22T08:49:45;98314.44;;;18.91;47.24
28181;BME280;15464;50.988;10.318;2023-04-22T08:52:12;98298.34;;;18.98;46.37
28181;BME280;15464;50.988;10.318;2023-04-22T08:54:41;98294.69;;;19.18;43.03
28181;BME280;15464;50.988;10.318;2023-04-22T08:57:08;98293.88;;;19.24;42.47
28181;BME280;15464;50.988;10.318;2023-04-22T08:59:37;98294.09;;;19.23;44.34
28181;BME280;15464;50.988;10.318;2023-04-22T09:02:05;98293.84;;;19.18;45.98
28181;BME280;15464;50.988;10.318;2023-04-22T09:04:33;98292.84;;;19.25;45.13
28181;BME280;15464;50.988;10.318;2023-04-22T09:07:00;98288.97;;;19.41;44.07
28181;BME280;15464;50.988;10.318;2023-04-22T09:09:27;98280.25;;;19.32;45.18
28181;BME280;15464;50.988;10.318;2023-04-22T09:11:56;98282.09;;;19.25;45.28
28181;BME280;15464;50.988;10.318;2023-04-22T09:14:24;98280.25;;;19.32;44.48
28181;BME280;15464;50.988;10.318;2023-04-22T09:16:51;98286.47;;;19.33;42.91
28181;BME280;15464;50.988;10.318;2023-04-22T09:19:22;98279.06;;;19.42;45.55
28181;BME280;15464;50.988;10.318;2023-04-22T09:21:49;98274.78;;;19.60;45.42
28181;BME280;15464;50.988;10.318;2023-04-22T09:24:19;98272.69;;;19.69;45.14
28181;BME280;15464;50.988;10.318;2023-04-22T09:26:46;98277.47;;;19.80;45.30
28181;BME280;15464;50.988;10.318;2023-04-22T09:29:14;98271.69;;;19.96;41.27
28181;BME280;15464;50.988;10.318;2023-04-22T09:31:43;98281.22;;;19.86;40.63
28181;BME280;15464;50.988;10.318;2023-04-22T09:34:13;98283.47;;;19.82;42.87
28181;BME280;15464;50.988;10.318;2023-04-22T09:36:41;98285.56;;;19.87;43.99
28181;BME280;15464;50.988;10.318;2023-04-22T09:39:08;98283.69;;;19.87;42.37
28181;BME280;15464;50.988;10.318;2023-04-22T09:41:39;98281.00;;;20.00;42.28
28181;BME280;15464;50.988;10.318;2023-04-22T09:44:13;98287.84;;;20.09;43.20
28181;BME280;15464;50.988;10.318;2023-04-22T09:46:42;98286.38;;;20.27;41.33
28181;BME280;15464;50.988;10.318;2023-04-22T09:49:09;98284.13;;;20.17;42.09
28181;BME280;15464;50.988;10.318;2023-04-22T09:51:39;98287.63;;;20.24;40.46
28181;BME280;15464;50.988;10.318;2023-04-22T09:54:07;98283.69;;;20.20;41.29
28181;BME280;15464;50.988;10.318;2023-04-22T09:56:43;98285.78;;;20.05;41.30
28181;BME280;15464;50.988;10.318;2023-04-22T09:59:10;98274.59;;;19.95;38.00
28181;BME280;15464;50.988;10.318;2023-04-22T10:01:39;98290.75;;;19.95;40.89
28181;BME280;15464;50.988;10.318;2023-04-22T10:06:55;98283.69;;;20.13;38.62
28181;BME280;15464;50.988;10.318;2023-04-22T10:09:23;98280.81;;;20.35;40.75
28181;BME280;15464;50.988;10.318;2023-04-22T10:11:52;98284.31;;;20.29;39.29
28181;BME280;15464;50.988;10.318;2023-04-22T10:14:24;98272.50;;;20.49;40.32
28181;BME280;15464;50.988;10.318;2023-04-22T10:16:55;98270.59;;;20.63;41.49
28181;BME280;15464;50.988;10.318;2023-04-22T10:19:25;98270.16;;;20.79;40.75
28181;BME280;15464;50.988;10.318;2023-04-22T10:21:55;98270.94;;;20.86;41.52
28181;BME280;15464;50.988;10.318;2023-04-22T10:24:25;98268.19;;;21.00;42.43
28181;BME280;15464;50.988;10.318;2023-04-22T10:26:57;98265.97;;;20.83;40.67
28181;BME280;15464;50.988;10.318;2023-04-22T10:29:26;98268.88;;;20.88;41.39
28181;BME280;15464;50.988;10.318;2023-04-22T10:32:05;98267.88;;;20.76;41.29
28181;BME280;15464;50.988;10.318;2023-04-22T10:34:36;98260.16;;;20.86;41.08
28181;BME280;15464;50.988;10.318;2023-04-22T10:37:08;98254.53;;;20.94;40.63
28181;BME280;15464;50.988;10.318;2023-04-22T10:39:38;98255.94;;;21.04;42.44
28181;BME280;15464;50.988;10.318;2023-04-22T10:42:08;98254.44;;;21.21;42.11
28181;BME280;15464;50.988;10.318;2023-04-22T10:50:09;98256.56;;;20.99;39.56
28181;BME280;15464;50.988;10.318;2023-04-22T10:52:36;98254.47;;;21.08;40.90
28181;BME280;15464;50.988;10.318;2023-04-22T10:55:04;98240.44;;;20.92;39.71
28181;BME280;15464;50.988;10.318;2023-04-22T10:57:34;98236.22;;;21.10;40.32
28181;BME280;15464;50.988;10.318;2023-04-22T11:05:31;98237.69;;;20.99;39.46
28181;BME280;15464;50.988;10.318;2023-04-22T11:08:05;98236.78;;;20.74;40.45
28181;BME280;15464;50.988;10.318;2023-04-22T11:13:14;98232.88;;;21.14;39.48
28181;BME280;15464;50.988;10.318;2023-04-22T11:15:43;98227.69;;;21.13;38.09
28181;BME280;15464;50.988;10.318;2023-04-22T11:18:21;98224.56;;;21.22;36.77
28181;BME280;15464;50.988;10.318;2023-04-22T11:20:49;98232.34;;;21.68;39.24
28181;BME280;15464;50.988;10.318;2023-04-22T11:23:26;98221.47;;;22.06;38.80
28181;BME280;15464;50.988;10.318;2023-04-22T11:26:01;98231.91;;;22.03;38.46
28181;BME280;15464;50.988;10.318;2023-04-22T11:28:29;98231.50;;;21.93;36.67
28181;BME280;15464;50.988;10.318;2023-04-22T11:31:06;98220.44;;;21.76;39.58
28181;BME280;15464;50.988;10.318;2023-04-22T11:33:35;98220.78;;;21.86;39.71
28181;BME280;15464;50.988;10.318;2023-04-22T11:36:04;98222.34;;;22.00;38.35
28181;BME280;15464;50.988;10.318;2023-04-22T11:38:35;98215.25;;;22.24;37.97
28181;BME280;15464;50.988;10.318;2023-04-22T11:41:02;98214.09;;;22.75;37.06
28181;BME280;15464;50.988;10.318;2023-04-22T11:43:30;98221.00;;;22.52;36.70
28181;BME280;15464;50.988;10.318;2023-04-22T11:45:57;98215.44;;;22.47;36.08
28181;BME280;15464;50.988;10.318;2023-04-22T11:48:23;98214.41;;;22.67;38.91
28181;BME280;15464;50.988;10.318;2023-04-22T11:51:06;98216.78;;;22.57;37.77
28181;BME280;15464;50.988;10.318;2023-04-22T11:53:33;98206.72;;;23.00;37.89
28181;BME280;15464;50.988;10.318;2023-04-22T11:56:01;98206.72;;;23.30;36.25
28181;BME280;15464;50.988;10.318;2023-04-22T11:58:29;98205.69;;;23.43;36.78
28181;BME280;15464;50.988;10.318;2023-04-22T12:00:57;98195.59;;;23.80;36.53
28181;BME280;15464;50.988;10.318;2023-04-22T12:03:29;98211.25;;;24.12;37.18
28181;BME280;15464;50.988;10.318;2023-04-22T12:05:59;98202.91;;;23.49;35.52
28181;BME280;15464;50.988;10.318;2023-04-22T12:08:36;98198.50;;;23.66;36.03
28181;BME280;15464;50.988;10.318;2023-04-22T12:11:07;98192.16;;;24.07;36.49
28181;BME280;15464;50.988;10.318;2023-04-22T12:18:51;98183.97;;;24.77;36.93
28181;BME280;15464;50.988;10.318;2023-04-22T12:21:23;98185.56;;;25.02;33.08
28181;BME280;15464;50.988;10.318;2023-04-22T12:24:02;98177.00;;;24.81;34.53
28181;BME280;15464;50.988;10.318;2023-04-22T12:26:32;98182.59;;;24.63;33.17
28181;BME280;15464;50.988;10.318;2023-04-22T12:28:59;98182.50;;;24.11;34.93
28181;BME280;15464;50.988;10.318;2023-04-22T12:31:26;98181.22;;;24.02;32.71
28181;BME280;15464;50.988;10.318;2023-04-22T12:33:53;98176.56;;;24.61;35.37
28181;BME280;15464;50.988;10.318;2023-04-22T12:36:21;98165.13;;;24.71;32.60
28181;BME280;15464;50.988;10.318;2023-04-22T12:38:48;98179.03;;;24.23;33.64
28181;BME280;15464;50.988;10.318;2023-04-22T12:41:16;98182.28;;;24.01;34.75
28181;BME280;15464;50.988;10.318;2023-04-22T12:43:43;98170.50;;;24.07;34.91
28181;BME280;15464;50.988;10.318;2023-04-22T12:46:10;98171.00;;;24.28;33.85
28181;BME280;15464;50.988;10.318;2023-04-22T12:48:36;98176.09;;;24.64;34.64
28181;BME280;15464;50.988;10.318;2023-04-22T12:51:04;98162.59;;;24.92;35.35
28181;BME280;15464;50.988;10.318;2023-04-22T12:53:32;98166.38;;;24.40;31.28
28181;BME280;15464;50.988;10.318;2023-04-22T12:55:58;98162.16;;;23.97;34.59
28181;BME280;15464;50.988;10.318;2023-04-22T12:58:25;98154.13;;;24.26;34.42
28181;BME280;15464;50.988;10.318;2023-04-22T13:00:52;98154.69;;;24.51;33.75
28181;BME280;15464;50.988;10.318;2023-04-22T13:03:19;98149.88;;;23.95;34.38
28181;BME280;15464;50.988;10.318;2023-04-22T13:05:46;98156.38;;;24.17;35.42
28181;BME280;15464;50.988;10.318;2023-04-22T13:08:13;98148.00;;;23.95;33.27
28181;BME280;15464;50.988;10.318;2023-04-22T13:10:40;98148.47;;;24.27;34.13
28181;BME280;15464;50.988;10.318;2023-04-22T13:13:07;98158.00;;;24.06;34.14
28181;BME280;15464;50.988;10.318;2023-04-22T13:15:36;98153.63;;;24.05;34.42
28181;BME280;15464;50.988;10.318;2023-04-22T13:18:04;98151.50;;;24.54;34.56
28181;BME280;15464;50.988;10.318;2023-04-22T13:20:31;98152.00;;;24.16;31.48